Terminal Aerodrome Forecast
Issued by NWS

Home | Current Version | Previous Version | Text Only | Print | Product List | Glossary On
Versions: 1 2 3 4 5 6 7 8 9 10 11 12 13 14 15 16 17 18 19 20 21 22 23 24
852
FTUS43 KEAX 270437 AAA
TAFSTJ
TAF AMD
KSTJ 270437Z 2705/2724 VRB03KT 3SM BR FEW007 SCT010
      TEMPO 2705/2706 2SM BR BKN007
     FM270600 16004KT 3SM BR OVC007
     FM271000 18002KT 2SM BR SCT007 BKN100
     FM271200 22004KT P6SM BKN080=

USA.gov is the U.S. government's official web portal to all federal, state and local government web resources and services.